Time;durP1;ratioP1;P1;durP2;ratioP2;P2;SDS_P1;SDS_P2;PMS_P1;PMS_P2;Temp;Humidity;BMP_temperature;BMP_pressure;BME280_temperature;BME280_humidity;BME280_pressure;Samples;Min_cycle;Max_cycle;Signal;HPM_P1;HPM_P2
2023/02/14 00:01:32;;;;;;;21.60;9.00;;;;;;;2.08;100.00;101130.95;106587;1287;59067;-78
2023/02/14 00:03:59;;;;;;;20.20;8.10;;;;;;;2.09;100.00;101132.52;106266;1289;59154;-78
2023/02/14 00:06:26;;;;;;;22.70;8.60;;;;;;;2.11;100.00;101120.75;106565;1288;58963;-78
2023/02/14 00:08:53;;;;;;;20.60;8.50;;;;;;;2.12;100.00;101115.30;106319;1288;59171;-78
2023/02/14 00:11:19;;;;;;;21.40;7.80;;;;;;;2.13;100.00;101113.78;106592;1287;59070;-78
2023/02/14 00:15:20;;;;;;;23.50;8.70;;;;;;;2.13;100.00;101111.20;106578;1288;59044;-78
2023/02/14 00:16:31;;;;;;;22.70;8.50;;;;;;;2.12;100.00;101101.59;106599;1288;73502;-79
2023/02/14 00:19:02;;;;;;;22.10;8.80;;;;;;;2.10;100.00;101097.85;106589;1288;61033;-78
2023/02/14 00:21:29;;;;;;;21.50;8.10;;;;;;;2.12;100.00;101094.02;106591;1287;60935;-78
2023/02/14 00:23:54;;;;;;;27.30;9.40;;;;;;;2.12;100.00;101092.30;106614;1288;75482;-78
2023/02/14 00:26:20;;;;;;;23.30;10.00;;;;;;;2.13;100.00;101090.27;106896;1284;59047;-78
2023/02/14 00:28:45;;;;;;;23.60;8.90;;;;;;;2.15;100.00;101087.10;106971;1284;59106;-78
2023/02/14 00:31:11;;;;;;;24.20;8.30;;;;;;;2.17;100.00;101080.85;106961;1285;59215;-78
2023/02/14 00:33:37;;;;;;;20.20;8.50;;;;;;;2.17;100.00;101074.45;106981;1285;59048;-78
2023/02/14 00:36:06;;;;;;;22.90;8.30;;;;;;;2.17;100.00;101075.70;106956;1284;74247;-78
2023/02/14 00:38:33;;;;;;;23.10;9.20;;;;;;;2.16;100.00;101068.08;106924;1285;73460;-78
2023/02/14 00:40:59;;;;;;;23.30;9.10;;;;;;;2.13;100.00;101067.77;106960;1284;61067;-78
2023/02/14 00:43:24;;;;;;;20.10;8.70;;;;;;;2.16;100.00;101065.75;106982;1286;59093;-78
2023/02/14 00:45:50;;;;;;;22.50;8.80;;;;;;;2.19;100.00;101065.41;106978;1286;59068;-78
2023/02/14 00:48:15;;;;;;;22.10;9.10;;;;;;;2.21;100.00;101066.48;106938;1286;59051;-78
2023/02/14 00:50:41;;;;;;;23.70;8.90;;;;;;;2.18;100.00;101058.00;106936;1285;59041;-78
2023/02/14 00:53:06;;;;;;;19.60;8.50;;;;;;;2.16;100.00;101055.77;106955;1285;59131;-78
2023/02/14 00:55:32;;;;;;;23.10;8.20;;;;;;;2.16;100.00;101055.69;106963;1286;59153;-78
2023/02/14 00:57:57;;;;;;;24.20;8.70;;;;;;;2.16;100.00;101052.91;106952;1285;59023;-78
2023/02/14 01:00:23;;;;;;;26.30;9.10;;;;;;;2.15;100.00;101045.30;106922;1285;58984;-78
2023/02/14 01:02:48;;;;;;;24.50;9.40;;;;;;;2.15;100.00;101038.36;106788;1285;59394;-78
2023/02/14 01:05:14;;;;;;;27.10;9.10;;;;;;;2.17;100.00;101036.60;106976;1286;58971;-78
2023/02/14 01:07:39;;;;;;;20.10;8.30;;;;;;;2.16;100.00;101035.27;106923;1285;59080;-78
2023/02/14 01:10:05;;;;;;;26.00;9.20;;;;;;;2.13;100.00;101028.54;106921;1285;59018;-78
2023/02/14 01:12:31;;;;;;;21.50;8.50;;;;;;;2.13;100.00;101022.55;106941;1285;59130;-78
2023/02/14 01:14:56;;;;;;;21.60;8.40;;;;;;;2.11;100.00;101020.14;107017;1284;59082;-78
2023/02/14 01:17:22;;;;;;;27.20;9.10;;;;;;;2.12;100.00;101011.88;107045;1285;59108;-78
2023/02/14 01:19:51;;;;;;;25.00;9.10;;;;;;;2.11;100.00;101014.06;106939;1284;70744;-78
2023/02/14 01:22:16;;;;;;;23.80;9.30;;;;;;;2.09;100.00;101011.84;106891;1285;62247;-78
2023/02/14 01:24:42;;;;;;;27.00;8.90;;;;;;;2.06;100.00;101007.97;106869;1285;59064;-78
2023/02/14 01:27:07;;;;;;;28.10;9.70;;;;;;;2.06;100.00;101005.68;106914;1285;59043;-79
2023/02/14 01:29:33;;;;;;;22.70;9.30;;;;;;;2.06;100.00;101003.39;106969;1284;59090;-78
2023/02/14 01:31:58;;;;;;;23.30;8.90;;;;;;;2.05;100.00;100997.98;106998;1284;59039;-78
2023/02/14 01:34:24;;;;;;;25.40;9.10;;;;;;;2.06;100.00;100993.65;106947;1286;59059;-78
2023/02/14 01:36:50;;;;;;;27.30;9.80;;;;;;;2.05;100.00;100992.42;106840;1286;59098;-77
2023/02/14 01:39:17;;;;;;;28.30;9.60;;;;;;;2.05;100.00;100991.08;106936;1285;59007;-78
2023/02/14 01:41:47;;;;;;;24.60;9.00;;;;;;;2.03;100.00;100989.23;106915;1285;59088;-78
2023/02/14 01:44:12;;;;;;;29.10;10.00;;;;;;;2.05;100.00;100979.38;106927;1285;61879;-78
2023/02/14 01:46:38;;;;;;;23.60;9.20;;;;;;;2.05;100.00;100980.42;106975;1286;59008;-78
2023/02/14 01:49:17;;;;;;;22.40;8.90;;;;;;;2.06;100.00;100973.20;106549;1286;59028;-78
2023/02/14 01:52:04;;;;;;;27.50;9.30;;;;;;;2.07;100.00;100971.05;106973;1283;74327;-78
2023/02/14 01:54:34;;;;;;;24.70;9.60;;;;;;;2.08;100.00;100963.23;107123;1282;73286;-79
2023/02/14 01:57:04;;;;;;;25.30;9.30;;;;;;;2.08;100.00;100958.33;107087;1282;60768;-77
2023/02/14 01:59:35;;;;;;;26.90;10.00;;;;;;;2.08;100.00;100953.30;107119;1282;60884;-78
2023/02/14 02:02:02;;;;;;;27.50;9.50;;;;;;;2.08;100.00;100951.35;106770;1283;75055;-79
2023/02/14 02:04:36;;;;;;;29.60;9.90;;;;;;;2.09;100.00;100944.55;107155;1282;58909;-78
2023/02/14 02:07:06;;;;;;;26.30;9.70;;;;;;;2.11;100.00;100939.33;106818;1283;73262;-78
2023/02/14 02:09:37;;;;;;;26.70;9.80;;;;;;;2.11;100.00;100934.59;106722;1285;60825;-78
2023/02/14 02:12:03;;;;;;;28.60;10.00;;;;;;;2.08;100.00;100927.60;107151;1283;59876;-78
2023/02/14 02:14:30;;;;;;;28.50;9.50;;;;;;;2.09;100.00;100924.89;106888;1283;59080;-78
2023/02/14 02:17:28;;;;;;;27.60;9.40;;;;;;;2.11;100.00;100920.03;107160;1282;59019;-78
2023/02/14 02:19:59;;;;;;;32.90;10.80;;;;;;;2.13;100.00;100917.63;107022;1282;73543;-78
2023/02/14 02:22:50;;;;;;;25.90;9.50;;;;;;;2.14;100.00;100909.95;107136;1282;60768;-78
2023/02/14 02:25:34;;;;;;;27.10;10.00;;;;;;;2.14;100.00;100909.00;107155;1282;59984;-78
2023/02/14 02:28:02;;;;;;;25.80;10.10;;;;;;;2.14;100.00;100902.91;107137;1283;75382;-78
2023/02/14 02:30:47;;;;;;;27.20;9.70;;;;;;;2.13;100.00;100895.92;107149;1282;74386;-79
2023/02/14 02:33:33;;;;;;;26.70;10.20;;;;;;;2.12;100.00;100893.05;107144;1282;73222;-78
2023/02/14 02:36:11;;;;;;;30.10;10.40;;;;;;;2.13;100.00;100890.67;107127;1282;61038;-78
2023/02/14 02:39:07;;;;;;;24.70;9.60;;;;;;;2.14;100.00;100884.02;107166;1282;61316;-78
2023/02/14 02:41:48;;;;;;;26.10;9.90;;;;;;;2.14;100.00;100878.17;107151;1282;75438;-79
2023/02/14 02:44:43;;;;;;;29.30;10.10;;;;;;;2.11;100.00;100877.30;107134;1282;74150;-78
2023/02/14 02:47:30;;;;;;;28.00;9.90;;;;;;;2.10;100.00;100878.81;106329;1289;73517;-78
2023/02/14 02:53:17;;;;;;;30.30;11.00;;;;;;;2.11;100.00;100861.88;106393;1289;60240;-78
2023/02/14 02:58:47;;;;;;;27.10;10.60;;;;;;;2.08;100.00;100859.09;106074;1289;72257;-78
2023/02/14 03:01:19;;;;;;;24.50;9.60;;;;;;;2.06;100.00;100848.13;106348;1290;73845;-78
2023/02/14 03:06:33;;;;;;;26.50;10.00;;;;;;;2.07;100.00;100841.25;106335;1291;60036;-78
2023/02/14 03:09:10;;;;;;;29.70;10.90;;;;;;;2.08;100.00;100834.67;106379;1289;59097;-78
2023/02/14 03:11:44;;;;;;;30.40;10.30;;;;;;;2.10;100.00;100832.28;106388;1289;74391;-78
2023/02/14 03:14:16;;;;;;;29.00;10.80;;;;;;;2.10;100.00;100820.22;106314;1291;72501;-78
2023/02/14 03:16:51;;;;;;;30.30;11.70;;;;;;;2.10;100.00;100816.98;106348;1289;62034;-78
2023/02/14 03:19:30;;;;;;;31.30;10.80;;;;;;;2.10;100.00;100808.48;106387;1290;61355;-78
2023/02/14 03:22:09;;;;;;;31.70;10.80;;;;;;;2.13;100.00;100808.27;106413;1289;75444;-79
2023/02/14 03:24:35;;;;;;;28.90;10.90;;;;;;;2.12;100.00;100803.61;106806;1283;74186;-78
2023/02/14 03:27:14;;;;;;;32.60;10.70;;;;;;;2.14;100.00;100801.75;107127;1282;59002;-78
2023/02/14 03:30:13;;;;;;;34.30;11.70;;;;;;;2.14;100.00;100798.55;107141;1282;62006;-78
2023/02/14 03:33:02;;;;;;;31.80;12.00;;;;;;;2.14;100.00;100791.97;106820;1285;61151;-79
2023/02/14 03:35:46;;;;;;;38.10;11.80;;;;;;;2.13;100.00;100786.11;106830;1285;73218;-79
2023/02/14 03:38:26;;;;;;;30.50;11.70;;;;;;;2.13;100.00;100783.29;106890;1284;74114;-78
2023/02/14 03:40:59;;;;;;;32.80;12.20;;;;;;;2.15;100.00;100776.27;106831;1284;73041;-79
2023/02/14 03:43:30;;;;;;;31.00;11.70;;;;;;;2.15;100.00;100772.21;106901;1285;61035;-79
2023/02/14 03:45:59;;;;;;;31.80;12.00;;;;;;;2.14;100.00;100768.81;106828;1285;61094;-78
2023/02/14 03:48:27;;;;;;;35.30;12.20;;;;;;;2.15;100.00;100766.23;106918;1285;74359;-78
2023/02/14 03:50:55;;;;;;;36.50;12.40;;;;;;;2.17;100.00;100765.79;106896;1285;73373;-79
2023/02/14 03:53:25;;;;;;;35.10;13.00;;;;;;;2.16;100.00;100761.16;106882;1284;73177;-78
2023/02/14 03:55:57;;;;;;;33.90;12.50;;;;;;;2.16;100.00;100758.48;106849;1285;61778;-79
2023/02/14 03:58:27;;;;;;;35.70;12.60;;;;;;;2.15;100.00;100748.12;106796;1285;61050;-78
2023/02/14 04:01:00;;;;;;;37.30;12.60;;;;;;;2.12;100.00;100746.48;106890;1285;73626;-79
2023/02/14 04:03:27;;;;;;;34.60;12.40;;;;;;;2.11;100.00;100742.42;106869;1288;74288;-79
2023/02/14 04:05:53;;;;;;;37.90;13.10;;;;;;;2.11;100.00;100737.39;106904;1285;72508;-79
2023/02/14 04:08:21;;;;;;;34.90;12.70;;;;;;;2.10;100.00;100737.92;106739;1285;59485;-81
2023/02/14 04:10:47;;;;;;;35.40;12.20;;;;;;;2.11;100.00;100734.65;106932;1284;60101;-81
2023/02/14 04:13:13;;;;;;;37.20;12.50;;;;;;;2.11;100.00;100736.20;106887;1285;58991;-81
2023/02/14 04:15:38;;;;;;;41.20;13.70;;;;;;;2.09;100.00;100733.88;106883;1285;59078;-81
2023/02/14 04:20:47;;;;;;;35.50;13.10;;;;;;;2.04;100.00;100748.25;106737;1284;59836;-81
2023/02/14 04:23:13;;;;;;;35.30;12.50;;;;;;;2.04;100.00;100759.30;106914;1285;59127;-81
2023/02/14 04:25:41;;;;;;;33.90;13.00;;;;;;;2.04;100.00;100762.77;106913;1284;59130;-81
2023/02/14 04:28:07;;;;;;;36.00;13.50;;;;;;;2.00;100.00;100767.00;106889;1285;58969;-80
2023/02/14 04:30:33;;;;;;;35.00;12.70;;;;;;;1.98;100.00;100763.73;106968;1283;59417;-82
2023/02/14 04:32:58;;;;;;;31.40;12.20;;;;;;;1.93;100.00;100762.09;107173;1283;59001;-82
2023/02/14 04:35:24;;;;;;;29.20;12.20;;;;;;;1.86;100.00;100760.08;107131;1282;59161;-82
2023/02/14 04:37:49;;;;;;;31.40;12.20;;;;;;;1.81;100.00;100760.44;107190;1282;59098;-83
2023/02/14 04:40:16;;;;;;;34.80;11.90;;;;;;;1.76;100.00;100760.78;107116;1283;73980;-83
2023/02/14 04:42:43;;;;;;;31.30;12.00;;;;;;;1.74;100.00;100757.66;107103;1282;61981;-82
2023/02/14 04:45:08;;;;;;;32.90;11.40;;;;;;;1.75;100.00;100758.40;107123;1283;61138;-83
2023/02/14 04:47:34;;;;;;;31.50;11.70;;;;;;;1.69;100.00;100756.54;107133;1283;59070;-83
2023/02/14 04:49:59;;;;;;;30.70;12.50;;;;;;;1.64;100.00;100755.73;107180;1282;59073;-83
2023/02/14 04:52:25;;;;;;;32.10;11.90;;;;;;;1.62;100.00;100760.35;107146;1283;59097;-83
2023/02/14 04:54:50;;;;;;;29.20;11.60;;;;;;;1.59;100.00;100759.06;107198;1283;59702;-83
2023/02/14 04:57:16;;;;;;;32.10;12.60;;;;;;;1.58;100.00;100760.73;107146;1288;74675;-83
2023/02/14 04:59:42;;;;;;;30.50;12.90;;;;;;;1.59;100.00;100758.56;107157;1283;59077;-83
2023/02/14 05:02:07;;;;;;;32.60;12.90;;;;;;;1.57;100.00;100757.91;107118;1283;59260;-83
2023/02/14 05:04:32;;;;;;;31.70;12.10;;;;;;;1.55;100.00;100758.43;107150;1283;59055;-84
2023/02/14 05:06:58;;;;;;;32.70;12.80;;;;;;;1.53;100.00;100758.83;106876;1286;59157;-85
2023/02/14 05:09:23;;;;;;;35.60;13.50;;;;;;;1.49;100.00;100755.58;107151;1283;74634;-85
2023/02/14 05:11:50;;;;;;;31.10;12.40;;;;;;;1.48;100.00;100755.33;106882;1283;59163;-87
2023/02/14 05:14:16;;;;;;;32.70;12.90;;;;;;;1.46;100.00;100754.47;107143;1283;59165;-87
2023/02/14 05:16:41;;;;;;;33.60;12.40;;;;;;;1.45;100.00;100755.73;107156;1282;59003;-88
2023/02/14 05:19:07;;;;;;;36.70;14.00;;;;;;;1.45;100.00;100756.38;107159;1282;59141;-88
2023/02/14 05:21:32;;;;;;;33.80;13.20;;;;;;;1.44;100.00;100753.60;106881;1283;59083;-90
2023/02/14 05:23:59;;;;;;;32.70;13.00;;;;;;;1.40;100.00;100752.14;106942;1283;215106;-90
2023/02/14 05:26:25;;;;;;;32.50;13.10;;;;;;;1.39;100.00;100752.27;106651;1288;60229;-89
2023/02/14 05:28:50;;;;;;;31.30;12.10;;;;;;;1.39;100.00;100753.60;107138;1283;59065;-90
2023/02/14 05:31:16;;;;;;;31.60;12.80;;;;;;;1.41;100.00;100753.23;106705;1283;59162;-89
2023/02/14 05:33:41;;;;;;;30.10;12.50;;;;;;;1.41;100.00;100751.61;107173;1283;59065;-89
2023/02/14 05:36:07;;;;;;;33.10;13.20;;;;;;;1.42;100.00;100747.24;107146;1283;58973;-89
2023/02/14 05:38:33;;;;;;;36.00;13.40;;;;;;;1.41;100.00;100751.15;107011;1282;75209;-89
2023/02/14 05:41:00;;;;;;;30.70;12.00;;;;;;;1.40;100.00;100749.20;107159;1282;59023;-87
2023/02/14 05:43:25;;;;;;;35.20;13.10;;;;;;;1.41;100.00;100744.92;107100;1282;59067;-88
2023/02/14 05:45:52;;;;;;;32.20;12.80;;;;;;;1.40;100.00;100745.44;107020;1285;58991;-87
2023/02/14 05:48:18;;;;;;;32.00;12.30;;;;;;;1.39;100.00;100753.08;106860;1283;59052;-87
2023/02/14 05:50:44;;;;;;;30.90;11.70;;;;;;;1.41;100.00;100751.64;107000;1283;59229;-87
2023/02/14 05:53:10;;;;;;;26.00;10.10;;;;;;;1.40;100.00;100751.28;107052;1283;58956;-86
2023/02/14 05:55:36;;;;;;;29.00;11.20;;;;;;;1.37;100.00;100752.08;107104;1283;59409;-86
2023/02/14 05:58:01;;;;;;;26.80;11.40;;;;;;;1.38;100.00;100749.91;107169;1283;59045;-86
2023/02/14 06:00:27;;;;;;;26.60;10.60;;;;;;;1.40;100.00;100753.89;107217;1283;59036;-84
2023/02/14 06:02:52;;;;;;;26.90;10.70;;;;;;;1.40;100.00;100751.31;107150;1283;59031;-85
2023/02/14 06:05:19;;;;;;;25.20;10.50;;;;;;;1.40;100.00;100750.95;106804;1282;59502;-85
2023/02/14 06:07:49;;;;;;;25.00;10.70;;;;;;;1.39;100.00;100746.79;107128;1282;59077;-84
2023/02/14 06:10:19;;;;;;;23.20;10.00;;;;;;;1.37;100.00;100748.23;107116;1282;60005;-85
2023/02/14 06:12:48;;;;;;;25.20;10.50;;;;;;;1.36;100.00;100744.56;107167;1282;74638;-84
2023/02/14 06:15:13;;;;;;;24.60;9.90;;;;;;;1.37;100.00;100742.23;106694;1283;74140;-83
2023/02/14 06:17:39;;;;;;;24.30;10.10;;;;;;;1.32;100.00;100741.36;107142;1283;59128;-84
2023/02/14 06:20:06;;;;;;;22.60;9.50;;;;;;;1.32;100.00;100740.66;107150;1283;59001;-84
2023/02/14 06:22:31;;;;;;;22.20;9.80;;;;;;;1.37;100.00;100743.61;106784;1283;59165;-83
2023/02/14 06:24:57;;;;;;;21.10;9.00;;;;;;;1.40;100.00;100734.90;107194;1283;59003;-83
2023/02/14 06:27:22;;;;;;;21.70;9.00;;;;;;;1.48;100.00;100739.80;106826;1286;59129;-83
2023/02/14 06:29:48;;;;;;;23.30;9.40;;;;;;;1.50;100.00;100738.09;107138;1282;61849;-83
2023/02/14 06:32:14;;;;;;;18.50;7.90;;;;;;;1.51;100.00;100739.25;107140;1283;59007;-83
2023/02/14 06:34:39;;;;;;;19.10;8.30;;;;;;;1.51;100.00;100740.19;106840;1283;59016;-82
2023/02/14 06:37:06;;;;;;;17.70;7.90;;;;;;;1.57;100.00;100738.46;106768;1283;59164;-82
2023/02/14 06:39:32;;;;;;;15.30;6.60;;;;;;;1.64;100.00;100732.56;106643;1286;59129;-83
2023/02/14 06:41:58;;;;;;;17.80;7.10;;;;;;;1.67;100.00;100731.61;106395;1286;59057;-82
2023/02/14 06:44:24;;;;;;;15.10;6.50;;;;;;;1.75;100.00;100731.46;106306;1286;59441;-82
2023/02/14 06:46:50;;;;;;;15.40;6.60;;;;;;;1.83;100.00;100727.45;106702;1286;60453;-82
2023/02/14 06:49:15;;;;;;;14.60;6.30;;;;;;;1.91;100.00;100731.73;106665;1286;72422;-82
2023/02/14 06:51:41;;;;;;;15.40;5.50;;;;;;;1.99;100.00;100727.80;106608;1286;59037;-82
2023/02/14 06:54:07;;;;;;;11.50;5.00;;;;;;;2.06;100.00;100723.35;106674;1286;59136;-83
2023/02/14 06:56:32;;;;;;;13.70;4.90;;;;;;;2.11;100.00;100719.65;106330;1286;59152;-84
2023/02/14 06:58:58;;;;;;;11.70;4.90;;;;;;;2.16;100.00;100721.75;106681;1286;59186;-85
2023/02/14 07:01:24;;;;;;;14.50;5.00;;;;;;;2.16;100.00;100725.77;106348;1291;59140;-83
2023/02/14 07:03:52;;;;;;;11.80;3.90;;;;;;;2.21;100.00;100729.89;106461;1286;59197;-84
2023/02/14 07:06:18;;;;;;;10.50;4.10;;;;;;;2.25;100.00;100732.60;106235;1286;73432;-84
2023/02/14 07:08:49;;;;;;;9.00;4.00;;;;;;;2.30;100.00;100727.38;106649;1286;73483;-84
2023/02/14 07:11:17;;;;;;;9.70;4.40;;;;;;;2.32;100.00;100719.86;106375;1286;72507;-85
2023/02/14 07:13:43;;;;;;;10.20;3.90;;;;;;;2.40;100.00;100717.20;107111;1282;60806;-86
2023/02/14 07:16:10;;;;;;;8.00;3.90;;;;;;;2.44;100.00;100714.88;107177;1283;59367;-86
2023/02/14 07:18:36;;;;;;;9.50;3.90;;;;;;;2.48;100.00;100717.30;106910;1283;73203;-86
2023/02/14 07:21:05;;;;;;;9.80;4.30;;;;;;;2.55;100.00;100715.52;107167;1283;59126;-87
2023/02/14 07:23:35;;;;;;;7.80;3.70;;;;;;;2.61;100.00;100712.59;106804;1283;73704;-87
2023/02/14 07:26:02;;;;;;;11.30;4.50;;;;;;;2.66;100.00;100707.44;106559;1283;60028;-86
2023/02/14 07:28:48;;;;;;;9.10;3.90;;;;;;;2.63;100.00;100710.13;106775;1285;59064;-87
2023/02/14 07:31:18;;;;;;;7.70;4.00;;;;;;;2.78;100.00;100702.89;106485;1286;75114;-87
2023/02/14 07:33:47;;;;;;;8.20;3.50;;;;;;;2.97;100.00;100700.09;106522;1286;74386;-88
2023/02/14 07:36:13;;;;;;;8.60;4.00;;;;;;;3.14;100.00;100696.91;106350;1286;71174;-85
2023/02/14 07:38:40;;;;;;;7.80;3.70;;;;;;;3.28;100.00;100697.78;106351;1289;59668;-84
2023/02/14 07:41:26;;;;;;;8.50;4.00;;;;;;;3.46;100.00;100695.91;106114;1289;60222;-87
2023/02/14 07:43:52;;;;;;;8.00;3.50;;;;;;;3.82;100.00;100698.92;106069;1291;74475;-84
2023/02/14 07:49:42;;;;;;;7.90;3.70;;;;;;;4.71;100.00;100701.66;106188;1291;72477;-85
2023/02/14 07:52:08;;;;;;;6.00;3.10;;;;;;;5.20;100.00;100699.77;106090;1291;60889;-85
2023/02/14 07:54:34;;;;;;;6.50;2.90;;;;;;;5.48;100.00;100700.52;106131;1291;60143;-85
2023/02/14 07:57:00;;;;;;;6.00;2.90;;;;;;;5.61;100.00;100699.80;106105;1291;59148;-83
2023/02/14 07:59:26;;;;;;;6.50;3.20;;;;;;;5.70;100.00;100699.07;106219;1291;59143;-82
2023/02/14 08:01:52;;;;;;;6.80;3.10;;;;;;;5.68;100.00;100695.55;105931;1291;59060;-82
2023/02/14 08:04:18;;;;;;;6.30;3.10;;;;;;;5.45;100.00;100698.13;106042;1291;59079;-81
2023/02/14 08:06:43;;;;;;;5.10;2.80;;;;;;;5.88;100.00;100695.38;106189;1289;59332;-83
2023/02/14 08:09:09;;;;;;;4.70;2.40;;;;;;;7.55;100.00;100696.92;106512;1288;73441;-82
2023/02/14 08:14:20;;;;;;;4.10;2.60;;;;;;;9.56;100.00;100689.09;106460;1288;60874;-79
2023/02/14 08:16:46;;;;;;;5.70;2.40;;;;;;;9.89;100.00;100687.10;106516;1287;59450;-79
2023/02/14 08:59:32;;;;;;;7.80;3.20;;;;;;;6.27;100.00;100704.95;107182;1282;72355;-76
2023/02/14 09:01:57;;;;;;;5.30;3.20;;;;;;;6.43;100.00;100702.91;106738;1281;58951;-77
2023/02/14 09:04:23;;;;;;;6.10;2.90;;;;;;;6.75;100.00;100704.91;107215;1281;59076;-77
2023/02/14 09:06:48;;;;;;;5.70;3.00;;;;;;;7.00;100.00;100704.97;107241;1281;59381;-79
2023/02/14 09:09:16;;;;;;;4.30;2.40;;;;;;;7.12;100.00;100701.73;107257;1282;59517;-79
2023/02/14 09:11:42;;;;;;;5.60;2.60;;;;;;;7.16;100.00;100706.17;107179;1282;62293;-79
2023/02/14 09:14:08;;;;;;;6.10;2.90;;;;;;;7.04;100.00;100701.40;107260;1282;59429;-79
2023/02/14 09:16:34;;;;;;;5.50;2.40;;;;;;;6.85;100.00;100711.09;107289;1282;59066;-79
2023/02/14 09:22:21;;;;;;;4.80;2.20;;;;;;;6.40;100.00;100714.91;107237;1282;72188;-79
2023/02/14 09:24:46;;;;;;;5.30;2.70;;;;;;;6.27;100.00;100713.19;106641;1285;59138;-79
2023/02/14 09:27:12;;;;;;;4.40;2.40;;;;;;;6.31;100.00;100709.71;106768;1286;59960;-78
2023/02/14 09:29:37;;;;;;;8.00;3.20;;;;;;;6.30;100.00;100710.02;106759;1285;59466;-79
2023/02/14 09:32:04;;;;;;;5.40;2.50;;;;;;;6.28;100.00;100710.06;106502;1286;59652;-78
2023/02/14 09:34:33;;;;;;;9.50;3.30;;;;;;;6.19;100.00;100711.70;106755;1285;60186;-78
2023/02/14 09:39:42;;;;;;;7.60;3.20;;;;;;;5.85;100.00;100708.14;106688;1285;74328;-78
2023/02/14 09:42:14;;;;;;;6.00;3.10;;;;;;;5.73;100.00;100717.27;106750;1285;59095;-78
2023/02/14 09:44:50;;;;;;;6.60;2.60;;;;;;;5.82;100.00;100720.45;106692;1285;72559;-78
2023/02/14 09:47:41;;;;;;;4.70;2.30;;;;;;;6.00;100.00;100722.75;106700;1285;61016;-78
2023/02/14 09:50:33;;;;;;;7.90;2.60;;;;;;;6.15;100.00;100731.06;106150;1291;60194;-78
2023/02/14 09:53:20;;;;;;;6.90;2.60;;;;;;;6.14;100.00;100728.27;106128;1291;74676;-78
2023/02/14 09:56:24;;;;;;;4.90;2.50;;;;;;;6.09;100.00;100725.59;106259;1288;73448;-78
2023/02/14 09:58:59;;;;;;;4.10;2.30;;;;;;;5.99;100.00;100724.61;106432;1288;72487;-78
2023/02/14 10:01:31;;;;;;;4.70;2.70;;;;;;;6.00;100.00;100728.92;106394;1288;60984;-78
2023/02/14 10:04:20;;;;;;;6.70;2.60;;;;;;;6.07;100.00;100727.39;106180;1292;59224;-78
2023/02/14 10:07:04;;;;;;;5.00;2.80;;;;;;;6.18;100.00;100732.13;106213;1289;75304;-78
2023/02/14 10:09:45;;;;;;;5.50;2.70;;;;;;;6.33;100.00;100729.05;106476;1288;74854;-78
2023/02/14 10:15:41;;;;;;;5.90;2.50;;;;;;;6.41;100.00;100725.65;106403;1288;60818;-76
2023/02/14 10:18:12;;;;;;;7.20;2.50;;;;;;;6.45;100.00;100729.44;106229;1289;60237;-77
2023/02/14 10:24:10;;;;;;;4.50;2.40;;;;;;;6.47;100.00;100727.27;106420;1288;73429;-76
2023/02/14 10:44:02;;;;;;;6.30;2.80;;;;;;;6.43;100.00;100725.02;107229;1282;72348;-79
2023/02/14 10:46:39;;;;;;;5.70;2.60;;;;;;;6.30;100.00;100721.43;106295;1289;60820;-79
2023/02/14 10:49:29;;;;;;;5.10;2.50;;;;;;;6.27;100.00;100719.13;106352;1289;61229;-79
2023/02/14 10:52:21;;;;;;;5.80;2.40;;;;;;;6.21;100.00;100719.25;106308;1289;75357;-80
2023/02/14 10:54:54;;;;;;;6.50;2.90;;;;;;;6.37;100.00;100710.58;106339;1289;73633;-79
2023/02/14 10:57:29;;;;;;;5.50;2.60;;;;;;;6.44;100.00;100704.21;106334;1289;72382;-79
2023/02/14 10:59:59;;;;;;;7.60;2.60;;;;;;;6.40;100.00;100703.73;106305;1289;61032;-79
2023/02/14 11:02:36;;;;;;;6.60;2.60;;;;;;;6.42;100.00;100696.50;106249;1289;60025;-78
2023/02/14 11:05:03;;;;;;;5.40;2.70;;;;;;;6.41;100.00;100695.73;106236;1289;75327;-78
2023/02/14 11:07:29;;;;;;;7.50;2.70;;;;;;;6.38;100.00;100692.27;106351;1289;74034;-79
2023/02/14 11:09:56;;;;;;;6.50;2.80;;;;;;;6.23;100.00;100690.23;106318;1289;59515;-79
2023/02/14 11:12:38;;;;;;;5.80;2.60;;;;;;;6.21;100.00;100685.16;106277;1291;59032;-78
2023/02/14 11:15:13;;;;;;;5.20;2.40;;;;;;;6.28;100.00;100683.24;106341;1289;60826;-79
2023/02/14 11:17:38;;;;;;;5.10;2.50;;;;;;;6.24;100.00;100683.80;106313;1289;73987;-78
2023/02/14 11:20:22;;;;;;;5.60;2.50;;;;;;;6.20;100.00;100679.73;106353;1289;59230;-78
2023/02/14 11:22:49;;;;;;;5.90;2.50;;;;;;;6.16;100.00;100679.88;106633;1282;72568;-80
2023/02/14 11:25:27;;;;;;;7.60;2.60;;;;;;;6.15;100.00;100677.84;107251;1281;60883;-79
2023/02/14 11:28:07;;;;;;;5.30;2.30;;;;;;;6.14;100.00;100675.88;107235;1281;60208;-80
2023/02/14 11:30:40;;;;;;;4.70;2.30;;;;;;;6.18;100.00;100676.15;107228;1282;73598;-80
2023/02/14 11:33:06;;;;;;;;;;;;;;;6.16;100.00;100675.39;107100;1282;74391;-80
2023/02/14 11:35:36;;;;;;;3.80;1.90;;;;;;;6.24;100.00;100679.73;107254;1281;59077;-80
2023/02/14 11:38:05;;;;;;;3.90;1.80;;;;;;;6.11;100.00;100679.34;107043;1281;61077;-79
2023/02/14 11:40:38;;;;;;;5.50;1.50;;;;;;;5.91;100.00;100679.27;107262;1281;60926;-79
2023/02/14 11:43:10;;;;;;;4.00;1.40;;;;;;;5.70;100.00;100682.01;107271;1282;74308;-79
2023/02/14 11:45:38;;;;;;;7.10;2.20;;;;;;;5.52;100.00;100677.54;107300;1282;74828;-79
2023/02/14 11:48:15;;;;;;;4.80;1.90;;;;;;;5.33;100.00;100679.48;106779;1282;72405;-79
2023/02/14 11:50:43;;;;;;;4.90;1.80;;;;;;;5.21;100.00;100681.59;107243;1282;61911;-79
2023/02/14 11:53:18;;;;;;;7.40;1.90;;;;;;;5.10;100.00;100684.08;107263;1281;61145;-79
2023/02/14 11:55:52;;;;;;;5.70;2.10;;;;;;;5.05;100.00;100682.37;107259;1282;73484;-79
2023/02/14 11:58:30;;;;;;;5.30;2.00;;;;;;;5.14;100.00;100686.67;107240;1282;74204;-79
2023/02/14 12:00:56;;;;;;;6.60;2.20;;;;;;;5.24;100.00;100684.96;107254;1282;72507;-80
2023/02/14 12:03:22;;;;;;;4.80;1.90;;;;;;;5.29;100.00;100684.43;107252;1282;59245;-79
2023/02/14 12:05:49;;;;;;;6.40;2.20;;;;;;;5.35;100.00;100688.07;107245;1282;58977;-80
2023/02/14 12:08:23;;;;;;;5.50;2.10;;;;;;;5.43;100.00;100686.39;107165;1282;60141;-79
2023/02/14 12:11:18;;;;;;;8.40;2.10;;;;;;;5.52;100.00;100686.67;107085;1282;74045;-80
2023/02/14 12:13:53;;;;;;;4.00;1.80;;;;;;;5.60;100.00;100686.77;107244;1281;72019;-80
2023/02/14 12:16:30;;;;;;;6.80;2.10;;;;;;;5.62;100.00;100688.85;107229;1282;62015;-80
2023/02/14 12:19:02;;;;;;;4.90;2.00;;;;;;;5.60;100.00;100697.10;107223;1282;60307;-79
2023/02/14 12:21:34;;;;;;;11.20;2.70;;;;;;;5.56;100.00;100698.46;107258;1282;75416;-79
2023/02/14 12:24:24;;;;;;;6.10;2.20;;;;;;;5.59;100.00;100695.39;107298;1281;74339;-79
2023/02/14 12:26:55;;;;;;;6.10;2.10;;;;;;;5.66;100.00;100695.50;107221;1282;73513;-79
2023/02/14 12:29:51;;;;;;;4.00;2.00;;;;;;;5.71;100.00;100692.67;107228;1281;60904;-79
2023/02/14 12:32:23;;;;;;;4.40;2.00;;;;;;;5.69;100.00;100697.44;107042;1281;61042;-79
2023/02/14 12:34:49;;;;;;;5.90;2.50;;;;;;;5.66;100.00;100700.15;107208;1282;75333;-79
2023/02/14 12:37:26;;;;;;;4.70;2.10;;;;;;;5.58;100.00;100702.10;107283;1282;59366;-79
2023/02/14 12:40:19;;;;;;;4.70;2.00;;;;;;;5.44;100.00;100701.10;107244;1281;73451;-79
2023/02/14 12:42:56;;;;;;;5.50;2.00;;;;;;;5.32;100.00;100703.10;107233;1282;60882;-79
2023/02/14 12:45:43;;;;;;;4.50;2.10;;;;;;;5.27;100.00;100700.36;107262;1282;60167;-79
2023/02/14 12:51:49;;;;;;;6.30;2.20;;;;;;;5.28;100.00;100710.52;107274;1282;73407;-78
2023/02/14 12:54:36;;;;;;;5.90;2.40;;;;;;;5.30;100.00;100711.05;107223;1281;73391;-78
2023/02/14 13:00:45;;;;;;;7.90;2.10;;;;;;;5.17;100.00;100717.42;107250;1281;59086;-79